Time;durP1;ratioP1;P1;durP2;ratioP2;P2;SDS_P1;SDS_P2;PMS_P1;PMS_P2;Temp;Humidity;BMP_temperature;BMP_pressure;BME280_temperature;BME280_humidity;BME280_pressure;Samples;Min_cycle;Max_cycle;Signal;HPM_P1;HPM_P2
2022/12/19 00:01:21;;;;;;;11.13;6.45;;;;;;;22.08;50.44;101542.50;5008219;28;20133;-57
2022/12/19 00:03:48;;;;;;;12.50;6.35;;;;;;;22.09;50.96;101549.59;5014129;28;20432;-56
2022/12/19 00:06:17;;;;;;;10.63;6.25;;;;;;;22.08;50.90;101548.72;5013884;28;20136;-56
2022/12/19 00:08:44;;;;;;;11.38;6.53;;;;;;;22.08;50.91;101554.03;5014273;28;20427;-56
2022/12/19 00:11:11;;;;;;;12.07;6.00;;;;;;;22.08;51.04;101551.38;5014356;28;20164;-56
2022/12/19 00:13:39;;;;;;;10.30;6.13;;;;;;;22.09;50.85;101561.06;5012644;28;20052;-57
2022/12/19 00:16:08;;;;;;;10.73;6.10;;;;;;;22.09;50.88;101554.91;5009961;28;20064;-57
2022/12/19 00:18:35;;;;;;;14.40;6.20;;;;;;;22.08;51.02;101559.34;5007632;28;20129;-56
2022/12/19 00:21:03;;;;;;;12.52;6.00;;;;;;;22.09;51.01;101561.06;5008767;28;20409;-57
2022/12/19 00:23:32;;;;;;;13.63;6.57;;;;;;;22.09;51.02;101558.41;5008122;28;20041;-57
2022/12/19 00:26:07;;;;;;;11.68;6.30;;;;;;;22.09;50.97;101562.84;5020783;28;20042;-57
2022/12/19 00:28:34;;;;;;;10.82;6.07;;;;;;;22.09;50.75;101561.06;5009718;28;20597;-56
2022/12/19 00:31:00;;;;;;;11.52;6.30;;;;;;;22.09;50.97;101561.06;4995902;28;20130;-57
2022/12/19 00:33:27;;;;;;;11.95;6.38;;;;;;;22.08;50.99;101556.69;4995243;28;20050;-56
2022/12/19 00:35:57;;;;;;;11.93;6.55;;;;;;;22.10;50.97;101554.88;5002462;28;20389;-57
2022/12/19 00:38:24;;;;;;;11.05;5.82;;;;;;;22.09;51.05;101553.09;5011557;28;20426;-57
2022/12/19 00:40:53;;;;;;;11.88;6.25;;;;;;;22.10;51.01;101551.31;5010265;28;20547;-57
2022/12/19 00:43:20;;;;;;;10.20;5.90;;;;;;;22.10;51.08;101551.31;5013599;28;20495;-57
2022/12/19 00:45:47;;;;;;;11.10;6.25;;;;;;;22.09;50.99;101550.44;5010814;28;20057;-57
2022/12/19 00:48:15;;;;;;;12.30;6.32;;;;;;;22.10;51.12;101557.53;5012184;28;20050;-57
2022/12/19 00:50:42;;;;;;;11.35;6.20;;;;;;;22.09;50.98;101550.44;5010976;28;20129;-57
2022/12/19 00:53:08;;;;;;;11.52;6.25;;;;;;;22.09;50.91;101553.09;5005449;28;20121;-57
2022/12/19 00:55:38;;;;;;;11.70;6.20;;;;;;;22.10;51.00;101551.31;5010810;28;20129;-57
2022/12/19 00:58:06;;;;;;;11.48;6.10;;;;;;;22.10;50.88;101553.97;5000720;28;20129;-57
2022/12/19 01:00:32;;;;;;;11.75;6.00;;;;;;;22.10;51.06;101557.53;5009984;28;20128;-57
2022/12/19 01:02:59;;;;;;;12.27;6.38;;;;;;;22.10;50.97;101557.53;5012491;28;20048;-57
2022/12/19 01:05:26;;;;;;;11.77;6.10;;;;;;;22.10;50.96;101560.19;5013110;28;20137;-57
2022/12/19 01:07:52;;;;;;;12.02;6.38;;;;;;;22.10;50.80;101560.19;5013126;28;20141;-57
2022/12/19 01:10:19;;;;;;;11.00;6.10;;;;;;;22.09;50.98;101555.75;5013288;28;20056;-57
2022/12/19 01:12:45;;;;;;;11.82;6.38;;;;;;;22.10;50.94;101562.84;5011948;28;20050;-57
2022/12/19 01:15:13;;;;;;;12.10;6.38;;;;;;;22.10;50.95;101552.22;5013014;28;20125;-57
2022/12/19 01:17:40;;;;;;;10.52;6.00;;;;;;;22.10;50.95;101560.19;5013266;28;20145;-57
2022/12/19 01:20:08;;;;;;;11.38;6.40;;;;;;;22.10;50.98;101568.16;5013098;28;20136;-57
2022/12/19 01:22:34;;;;;;;10.75;6.47;;;;;;;22.09;50.79;101550.44;5011997;28;20050;-57
2022/12/19 01:25:01;;;;;;;10.95;6.15;;;;;;;22.10;50.96;101554.88;5013004;28;20129;-57
2022/12/19 01:27:28;;;;;;;11.27;6.25;;;;;;;22.09;50.85;101558.41;5011152;28;20125;-57
2022/12/19 01:29:54;;;;;;;11.57;6.70;;;;;;;22.09;50.87;101560.19;5012969;28;20053;-57
2022/12/19 01:32:22;;;;;;;10.98;6.45;;;;;;;22.09;50.97;101554.91;5010925;28;20451;-57
2022/12/19 01:34:49;;;;;;;10.68;6.10;;;;;;;22.09;50.79;101552.25;4993030;28;20508;-57
2022/12/19 01:37:17;;;;;;;11.07;6.50;;;;;;;22.09;50.95;101549.59;4993345;28;20046;-57
2022/12/19 01:39:44;;;;;;;11.75;6.30;;;;;;;22.08;50.84;101558.44;4992843;28;20056;-58
2022/12/19 01:42:13;;;;;;;11.75;6.63;;;;;;;22.10;50.85;101551.31;5000831;28;20050;-57
2022/12/19 01:44:40;;;;;;;11.45;6.10;;;;;;;22.08;50.87;101559.34;5012384;28;20058;-57
2022/12/19 01:47:09;;;;;;;11.02;6.45;;;;;;;22.08;50.95;101554.03;5012681;28;20056;-57
2022/12/19 01:49:37;;;;;;;12.07;6.28;;;;;;;22.08;50.86;101555.78;5014275;28;20053;-57
2022/12/19 01:52:04;;;;;;;12.05;6.65;;;;;;;22.08;50.86;101547.81;5031932;28;20136;-57
2022/12/19 01:54:34;;;;;;;10.95;6.68;;;;;;;22.07;50.87;101549.59;5020276;28;20054;-57
2022/12/19 01:57:01;;;;;;;11.30;6.32;;;;;;;22.07;50.68;101549.59;5012275;28;20132;-57
2022/12/19 01:59:29;;;;;;;11.60;6.68;;;;;;;22.07;50.87;101552.25;5012461;28;20049;-57
2022/12/19 02:01:58;;;;;;;11.30;6.28;;;;;;;22.06;50.78;101545.19;5011689;28;20125;-57
2022/12/19 02:04:25;;;;;;;10.68;6.32;;;;;;;22.07;50.72;101546.94;5011871;28;20042;-57
2022/12/19 02:06:56;;;;;;;11.95;6.60;;;;;;;22.06;50.63;101546.97;5012649;28;20140;-57
2022/12/19 02:09:25;;;;;;;11.70;6.50;;;;;;;22.06;50.70;101545.19;5012386;28;20137;-57
2022/12/19 02:11:52;;;;;;;13.82;6.80;;;;;;;22.07;50.88;101546.94;5012290;28;20052;-57
2022/12/19 02:14:19;;;;;;;11.63;6.28;;;;;;;22.07;50.73;101551.38;5011707;28;20132;-57
2022/12/19 02:16:49;;;;;;;11.80;6.75;;;;;;;22.06;50.70;101545.19;5010278;28;20144;-57
2022/12/19 02:19:33;;;;;;;10.93;6.45;;;;;;;22.06;50.66;101545.19;5011404;28;20814;-57
2022/12/19 02:22:01;;;;;;;10.90;6.57;;;;;;;22.06;50.69;101554.94;5012067;28;20136;-57
2022/12/19 02:24:54;;;;;;;12.77;6.75;;;;;;;22.05;50.70;101551.41;5012504;28;20046;-57
2022/12/19 02:27:41;;;;;;;11.50;6.50;;;;;;;22.07;50.62;101551.38;4992585;28;20438;-57
2022/12/19 02:30:10;;;;;;;11.50;6.45;;;;;;;22.06;50.58;101549.63;5005944;28;20153;-57
2022/12/19 02:32:46;;;;;;;14.38;6.80;;;;;;;22.06;50.80;101550.50;5011015;28;20058;-57
2022/12/19 02:35:17;;;;;;;12.35;7.00;;;;;;;22.07;50.76;101546.09;5008889;28;20041;-57
2022/12/19 02:37:45;;;;;;;11.75;6.50;;;;;;;22.08;50.69;101542.50;5009973;28;20057;-57
2022/12/19 02:40:14;;;;;;;13.10;7.05;;;;;;;22.07;50.78;101543.44;5010935;28;20204;-57
2022/12/19 02:42:42;;;;;;;11.63;6.60;;;;;;;22.07;50.64;101538.13;5011203;28;20049;-57
2022/12/19 02:45:11;;;;;;;12.10;6.60;;;;;;;22.07;50.82;101527.50;5009856;28;20464;-57
2022/12/19 02:47:37;;;;;;;12.38;6.55;;;;;;;22.07;50.79;101525.72;5010484;28;20056;-57
2022/12/19 02:50:06;;;;;;;11.40;6.57;;;;;;;22.07;50.70;101520.41;5010886;28;20058;-57
2022/12/19 02:52:46;;;;;;;10.88;6.30;;;;;;;22.07;50.67;101509.78;5011209;28;20053;-57
2022/12/19 02:55:15;;;;;;;11.75;6.65;;;;;;;22.06;50.93;101515.97;5011228;28;20125;-57
2022/12/19 02:57:54;;;;;;;11.63;6.38;;;;;;;22.07;50.82;101504.47;5010634;28;20057;-57
2022/12/19 03:00:21;;;;;;;10.93;6.25;;;;;;;22.07;50.68;101504.47;5011224;28;20144;-57
2022/12/19 03:03:00;;;;;;;11.27;6.35;;;;;;;22.08;50.63;101500.94;5007940;28;20054;-58
2022/12/19 03:05:31;;;;;;;10.80;6.40;;;;;;;22.09;50.78;101505.31;5009880;28;20085;-57
2022/12/19 03:08:01;;;;;;;10.80;6.05;;;;;;;22.09;50.73;101496.50;5010232;28;20046;-57
2022/12/19 03:10:30;;;;;;;10.98;6.65;;;;;;;22.09;50.74;101496.50;5010486;28;20081;-57
2022/12/19 03:12:57;;;;;;;11.60;6.60;;;;;;;22.09;50.74;101500.00;5009164;28;20054;-57
2022/12/19 03:15:24;;;;;;;10.90;6.25;;;;;;;22.09;50.79;101499.16;5010760;28;20136;-57
2022/12/19 03:17:51;;;;;;;11.10;6.45;;;;;;;22.10;50.72;101496.47;5008144;28;20136;-57
2022/12/19 03:20:22;;;;;;;10.82;6.43;;;;;;;22.10;50.65;101498.22;5009602;28;20125;-57
2022/12/19 03:22:51;;;;;;;10.73;6.35;;;;;;;22.10;50.68;101504.44;5009080;28;20053;-57
2022/12/19 03:25:18;;;;;;;10.38;5.85;;;;;;;22.10;50.60;101499.13;5010418;28;20461;-57
2022/12/19 03:27:45;;;;;;;11.25;6.60;;;;;;;22.10;50.67;101503.53;5012970;28;20057;-57
2022/12/19 03:30:12;;;;;;;11.68;6.97;;;;;;;22.10;50.67;101499.13;5014429;28;20555;-57
2022/12/19 03:32:39;;;;;;;10.27;6.05;;;;;;;22.10;50.73;101496.47;5013125;28;20060;-57
2022/12/19 03:35:08;;;;;;;11.63;6.47;;;;;;;22.10;50.60;101495.56;5013245;28;20514;-57
2022/12/19 03:37:36;;;;;;;10.93;6.25;;;;;;;22.09;50.56;101502.66;5014576;28;20049;-57
2022/12/19 03:40:07;;;;;;;12.43;6.20;;;;;;;22.10;50.72;101509.75;5011201;28;20050;-57
2022/12/19 03:45:20;;;;;;;11.40;6.40;;;;;;;22.08;50.60;101514.22;5013424;28;20053;-57
2022/12/19 03:47:48;;;;;;;11.63;6.65;;;;;;;22.09;50.69;101507.97;5012698;28;20312;-57
2022/12/19 03:50:15;;;;;;;11.45;6.63;;;;;;;22.09;50.69;101501.81;5012797;28;20136;-57
2022/12/19 03:52:45;;;;;;;11.88;7.03;;;;;;;22.08;50.61;101502.69;5013401;28;20132;-57
2022/12/19 03:55:16;;;;;;;12.90;6.57;;;;;;;22.08;50.73;101506.25;5014027;28;20056;-57
2022/12/19 03:57:45;;;;;;;11.40;6.60;;;;;;;22.09;50.68;101497.34;5013611;28;20075;-57
2022/12/19 04:00:13;;;;;;;12.27;6.45;;;;;;;22.07;50.55;101499.16;5013440;28;20137;-57
2022/12/19 04:02:41;;;;;;;10.57;6.28;;;;;;;22.10;50.66;101498.22;5010951;28;20050;-57
2022/12/19 04:05:08;;;;;;;10.98;6.63;;;;;;;22.09;50.40;101491.19;5013659;28;20045;-57
2022/12/19 04:07:35;;;;;;;12.20;6.75;;;;;;;22.09;50.55;101494.69;5014932;28;20053;-57
2022/12/19 04:10:01;;;;;;;11.80;6.72;;;;;;;22.10;50.55;101487.59;5013576;28;20420;-57
2022/12/19 04:12:32;;;;;;;12.05;6.70;;;;;;;22.10;50.73;101492.91;5013694;28;20134;-57
2022/12/19 04:14:58;;;;;;;10.82;6.30;;;;;;;22.08;50.54;101485.00;5013827;28;20049;-57
2022/12/19 04:17:27;;;;;;;11.85;6.75;;;;;;;22.10;50.61;101491.16;5014406;28;20141;-57
2022/12/19 04:19:55;;;;;;;12.32;7.25;;;;;;;22.09;50.56;101486.75;5014345;28;20133;-57
2022/12/19 04:22:23;;;;;;;11.30;6.90;;;;;;;22.10;50.51;101488.50;5014420;28;20130;-57
2022/12/19 04:24:50;;;;;;;11.20;6.35;;;;;;;22.11;50.61;101492.91;4994604;28;20050;-57
2022/12/19 04:27:18;;;;;;;11.70;6.75;;;;;;;22.09;50.68;101492.03;4997412;28;20152;-57
2022/12/19 04:29:46;;;;;;;12.18;7.18;;;;;;;22.09;50.44;101497.34;5013752;28;20137;-57
2022/12/19 04:32:12;;;;;;;11.45;6.75;;;;;;;22.08;50.58;101495.63;5014140;28;20137;-57
2022/12/19 04:34:39;;;;;;;11.02;6.85;;;;;;;22.08;50.55;101500.03;5013865;28;20136;-57
2022/12/19 04:37:06;;;;;;;12.48;6.57;;;;;;;22.05;50.63;101498.31;5011189;28;20129;-58
2022/12/19 04:39:33;;;;;;;11.98;6.63;;;;;;;22.06;50.49;101502.72;5012880;28;20052;-57
2022/12/19 04:42:00;;;;;;;15.15;6.60;;;;;;;22.08;50.52;101505.34;5013057;28;20049;-57
2022/12/19 04:44:26;;;;;;;14.00;6.80;;;;;;;22.07;50.62;101493.84;5013655;28;20496;-57
2022/12/19 04:46:54;;;;;;;13.15;6.50;;;;;;;22.07;50.72;101499.16;5013103;28;20556;-57
2022/12/19 04:49:21;;;;;;;11.40;5.97;;;;;;;22.10;50.58;101496.47;5013299;28;20057;-57
2022/12/19 04:51:48;;;;;;;11.43;6.57;;;;;;;22.11;50.73;101503.50;5012748;28;20045;-64
2022/12/19 04:54:15;;;;;;;14.85;6.72;;;;;;;22.12;50.72;101502.63;5012522;28;20046;-64
2022/12/19 04:56:42;;;;;;;11.15;7.03;;;;;;;22.13;50.74;101504.34;5012614;28;20049;-64
2022/12/19 04:59:10;;;;;;;13.60;6.80;;;;;;;22.16;51.06;101514.06;5011691;28;20050;-64
2022/12/19 05:01:38;;;;;;;13.93;6.57;;;;;;;22.18;51.00;101513.13;5012796;28;20057;-64
2022/12/19 05:04:31;;;;;;;12.02;6.65;;;;;;;22.20;50.73;101513.97;5013268;28;20050;-64
2022/12/19 05:06:59;;;;;;;13.60;6.45;;;;;;;22.20;50.86;101506.00;4990405;28;20058;-64
2022/12/19 05:09:26;;;;;;;12.43;6.30;;;;;;;22.22;50.84;101517.47;5009669;28;20054;-64
2022/12/19 05:11:54;;;;;;;15.48;6.82;;;;;;;22.23;50.73;101511.25;5025405;28;20048;-64
2022/12/19 05:14:21;;;;;;;17.00;7.60;;;;;;;22.22;50.71;101509.50;5013521;28;20053;-64
2022/12/19 05:16:48;;;;;;;11.50;5.80;;;;;;;22.20;50.91;101513.97;5012401;28;20077;-64
2022/12/19 05:19:15;;;;;;;11.48;6.53;;;;;;;22.21;50.91;101526.34;5011720;28;20062;-64
2022/12/19 05:21:44;;;;;;;12.65;6.10;;;;;;;22.23;50.70;101524.53;4993064;28;20042;-57
2022/12/19 05:24:10;;;;;;;13.73;5.82;;;;;;;22.29;50.79;101536.00;4993460;28;20048;-56
2022/12/19 05:26:37;;;;;;;11.52;6.05;;;;;;;22.31;50.74;101540.38;4992402;28;20084;-56
2022/12/19 05:29:04;;;;;;;11.18;6.03;;;;;;;22.34;50.66;101550.94;4992066;28;20060;-56
2022/12/19 05:31:30;;;;;;;11.32;6.43;;;;;;;22.37;50.63;101536.72;5000803;28;20125;-56
2022/12/19 05:33:57;;;;;;;15.07;5.65;;;;;;;22.38;50.74;101534.03;5000282;28;20053;-57
2022/12/19 05:36:24;;;;;;;10.60;6.15;;;;;;;22.39;50.40;101538.47;5011027;28;20050;-56
2022/12/19 05:38:52;;;;;;;13.18;6.00;;;;;;;22.40;50.43;101537.53;5010613;28;20133;-57
2022/12/19 05:41:20;;;;;;;14.20;6.95;;;;;;;22.41;50.68;101535.75;5010809;28;20133;-64
2022/12/19 05:43:49;;;;;;;14.13;6.78;;;;;;;22.42;50.61;101526.91;5011769;28;20129;-57
2022/12/19 15:46:00;;;;;;;49.60;27.67;;;;;;;21.34;54.61;101318.22;5107039;28;20055;-71
2022/12/19 15:55:26;;;;;;;41.22;26.10;;;;;;;21.68;53.69;101304.41;5042554;28;20127;-71
2022/12/19 15:57:56;;;;;;;41.28;26.13;;;;;;;21.77;53.48;101305.09;5040134;28;20507;-71
2022/12/19 16:00:26;;;;;;;41.83;24.63;;;;;;;21.85;52.93;101298.75;5105160;28;20497;-69
2022/12/19 16:02:53;;;;;;;40.35;25.63;;;;;;;21.91;52.94;101299.50;5106483;28;20690;-70
2022/12/19 16:05:21;;;;;;;41.90;25.83;;;;;;;21.98;52.77;101302.91;5108494;28;20050;-70
2022/12/19 16:07:48;;;;;;;39.40;24.38;;;;;;;22.03;52.74;101307.22;5105345;28;20203;-71
2022/12/19 16:10:19;;;;;;;37.95;24.90;;;;;;;22.09;52.71;101306.22;5101503;28;20043;-70
2022/12/19 16:12:49;;;;;;;38.08;24.42;;;;;;;22.14;52.49;101301.69;5105996;28;20108;-70
2022/12/19 16:15:23;;;;;;;40.65;25.08;;;;;;;22.19;52.15;101302.47;5107845;28;20490;-71
2022/12/19 16:17:50;;;;;;;40.35;23.63;;;;;;;22.22;51.67;101285.63;5112822;28;20070;-71
2022/12/19 16:20:18;;;;;;;38.10;24.27;;;;;;;22.26;51.79;101286.47;5090124;28;20126;-72
2022/12/19 16:22:44;;;;;;;38.00;24.15;;;;;;;22.31;51.80;101300.50;5099898;28;20155;-73
2022/12/19 16:25:11;;;;;;;36.40;23.40;;;;;;;22.34;51.71;101295.13;5083168;28;20135;-73
2022/12/19 16:27:38;;;;;;;35.83;23.00;;;;;;;22.37;51.88;101287.06;5119897;28;20054;-72
2022/12/19 16:30:17;;;;;;;36.42;23.35;;;;;;;22.40;51.57;101290.53;5095240;28;20050;-72
2022/12/19 16:32:44;;;;;;;33.60;22.00;;;;;;;22.44;51.44;101287.84;5106621;28;20050;-72
2022/12/19 16:35:13;;;;;;;39.35;22.60;;;;;;;22.46;51.72;101286.00;5104912;28;20054;-72
2022/12/19 16:37:40;;;;;;;43.17;22.05;;;;;;;22.49;51.77;101272.63;5113282;28;20127;-72
2022/12/19 16:40:09;;;;;;;35.05;21.80;;;;;;;22.51;51.46;101266.41;5111846;28;20123;-72
2022/12/19 16:42:36;;;;;;;35.38;21.42;;;;;;;22.54;51.54;101266.31;5093124;28;20048;-72
2022/12/19 16:45:03;;;;;;;35.50;21.65;;;;;;;22.54;50.98;101270.75;5103806;28;20075;-72
2022/12/19 16:47:31;;;;;;;33.72;22.15;;;;;;;22.56;51.19;101264.50;5108342;28;20043;-72
2022/12/19 16:49:58;;;;;;;35.83;20.77;;;;;;;22.58;51.36;101275.97;5095961;28;20048;-73
2022/12/19 16:52:25;;;;;;;31.77;20.50;;;;;;;22.59;51.40;101275.06;5101068;28;20123;-73
2022/12/19 16:54:52;;;;;;;31.08;20.10;;;;;;;22.59;50.58;101269.75;5089572;28;20148;-71
2022/12/19 16:57:20;;;;;;;34.75;20.45;;;;;;;22.62;51.10;101263.47;5068301;28;20051;-73
2022/12/19 16:59:47;;;;;;;32.45;20.77;;;;;;;22.65;51.21;101265.22;5089246;28;20058;-71
2022/12/19 17:02:26;;;;;;;34.30;19.88;;;;;;;22.66;50.94;101264.28;5092232;28;20123;-74
2022/12/19 17:04:56;;;;;;;34.53;19.80;;;;;;;22.69;51.16;101261.56;5089434;28;20079;-73
2022/12/19 17:07:24;;;;;;;30.92;20.02;;;;;;;22.70;51.18;101268.63;5092992;28;20498;-72
2022/12/19 17:09:50;;;;;;;37.72;20.95;;;;;;;22.73;51.33;101265.91;5082600;28;20048;-70
2022/12/19 17:12:18;;;;;;;31.95;18.98;;;;;;;22.74;51.29;101268.53;5092397;28;20494;-70
2022/12/19 17:14:44;;;;;;;31.20;18.55;;;;;;;22.76;51.14;101263.16;5095583;28;20127;-62
2022/12/19 17:17:12;;;;;;;28.23;18.13;;;;;;;22.77;51.19;101267.56;5085915;28;20525;-62
2022/12/19 17:19:40;;;;;;;28.65;17.40;;;;;;;22.79;51.11;101265.75;5094245;28;20489;-62
2022/12/19 17:22:11;;;;;;;29.55;18.27;;;;;;;22.80;51.12;101272.81;5101345;28;20476;-62
2022/12/19 17:24:38;;;;;;;26.95;16.63;;;;;;;22.81;51.20;101269.25;5097912;28;20047;-63
2022/12/19 17:27:05;;;;;;;28.35;16.73;;;;;;;22.80;50.98;101267.50;5101884;28;20386;-62
2022/12/19 17:29:32;;;;;;;25.52;16.83;;;;;;;22.81;51.13;101264.78;5100423;28;20113;-62
2022/12/19 17:31:58;;;;;;;28.90;17.95;;;;;;;22.81;51.09;101258.63;5102228;28;20062;-63
2022/12/19 17:34:26;;;;;;;27.90;17.30;;;;;;;22.81;51.00;101250.63;5102097;28;20036;-63
2022/12/19 17:36:53;;;;;;;25.23;17.15;;;;;;;22.81;50.96;101248.84;5099130;28;20075;-63
2022/12/19 17:39:22;;;;;;;28.55;17.10;;;;;;;22.81;51.13;101247.97;5103360;28;20054;-63
2022/12/19 17:41:49;;;;;;;25.83;16.67;;;;;;;22.80;51.14;101249.78;5095022;28;20127;-63
2022/12/19 17:44:16;;;;;;;27.23;17.17;;;;;;;22.80;51.18;101247.13;5092589;28;20526;-63
2022/12/19 17:46:43;;;;;;;28.30;17.20;;;;;;;22.82;51.15;101249.75;5099168;28;20043;-63
2022/12/19 17:49:14;;;;;;;25.58;16.60;;;;;;;22.81;51.25;101255.94;5096995;28;20078;-63
2022/12/19 17:51:41;;;;;;;25.70;16.10;;;;;;;22.81;51.25;101255.94;5099623;28;20073;-64
2022/12/19 17:54:10;;;;;;;28.38;17.40;;;;;;;22.80;51.33;101256.88;5096838;28;20679;-64
2022/12/19 17:56:38;;;;;;;25.35;16.38;;;;;;;22.81;51.10;101253.28;5099213;28;20042;-64
2022/12/19 17:59:05;;;;;;;26.30;16.05;;;;;;;22.80;51.18;101252.44;5096656;28;20044;-62
2022/12/19 18:01:32;;;;;;;28.85;17.08;;;;;;;22.81;51.23;101258.63;5088737;28;20054;-62
2022/12/19 18:03:59;;;;;;;27.63;16.65;;;;;;;22.80;51.16;101256.88;5087259;28;20048;-63
2022/12/19 18:06:26;;;;;;;27.88;17.08;;;;;;;22.79;51.09;101242.69;5094094;28;20189;-62
2022/12/19 18:08:54;;;;;;;24.75;16.65;;;;;;;22.81;51.20;101247.97;5092892;28;20044;-62
2022/12/19 18:11:22;;;;;;;24.92;16.67;;;;;;;22.79;51.19;101237.38;5086184;28;20433;-63
2022/12/19 18:13:51;;;;;;;27.02;16.23;;;;;;;22.80;51.28;101240.94;5097501;28;20060;-62
2022/12/19 18:16:19;;;;;;;24.58;15.60;;;;;;;22.80;51.15;101246.25;5096780;28;20524;-62
2022/12/19 18:18:46;;;;;;;34.17;16.15;;;;;;;22.79;51.11;101244.50;5103734;28;20084;-64
2022/12/19 18:21:17;;;;;;;26.95;16.08;;;;;;;22.79;51.19;101241.84;5089121;28;20039;-71
2022/12/19 18:23:45;;;;;;;25.63;15.80;;;;;;;22.76;51.08;101242.78;5099444;28;20047;-70
2022/12/19 18:26:12;;;;;;;26.98;16.85;;;;;;;22.76;51.26;101241.91;5082729;28;20049;-71
2022/12/19 18:28:40;;;;;;;33.05;16.75;;;;;;;22.75;51.43;101240.16;5078343;28;20055;-68
2022/12/19 18:31:27;;;;;;;26.65;15.82;;;;;;;22.77;51.41;101239.19;5087667;28;20040;-68
2022/12/19 18:34:04;;;;;;;31.02;15.95;;;;;;;22.79;51.25;101240.03;5088304;28;20044;-68
2022/12/19 18:36:30;;;;;;;25.50;15.70;;;;;;;22.80;50.98;101235.63;5091429;28;20052;-69
2022/12/19 18:38:57;;;;;;;24.98;15.55;;;;;;;22.82;51.19;101233.78;5089266;28;20056;-69
2022/12/19 18:41:26;;;;;;;24.45;15.27;;;;;;;22.83;50.72;101235.53;5091801;28;20448;-69
2022/12/19 18:43:53;;;;;;;28.02;15.70;;;;;;;22.85;51.14;101224.88;5069843;28;20049;-61
2022/12/19 18:46:27;;;;;;;27.60;16.88;;;;;;;22.85;51.09;101222.22;5065132;28;20498;-60
2022/12/19 18:48:54;;;;;;;25.17;16.02;;;;;;;22.84;51.03;101226.66;5089121;28;20086;-61
2022/12/19 18:51:22;;;;;;;30.33;15.77;;;;;;;22.84;51.12;101226.66;5089585;28;20036;-61
2022/12/19 18:53:49;;;;;;;30.35;15.07;;;;;;;22.83;50.90;101230.22;5091876;28;20425;-61
2022/12/19 18:56:16;;;;;;;23.17;14.48;;;;;;;22.83;51.17;101232.88;5086278;28;20075;-61
2022/12/19 18:58:42;;;;;;;26.60;15.10;;;;;;;22.81;50.97;101230.25;5091958;28;20083;-61
2022/12/19 19:01:11;;;;;;;25.77;15.60;;;;;;;22.82;51.05;101233.78;5091059;28;20562;-61
2022/12/19 19:03:39;;;;;;;24.60;14.68;;;;;;;22.82;51.26;101223.16;5090181;28;20126;-61
2022/12/19 19:06:09;;;;;;;25.45;14.18;;;;;;;22.81;51.21;101226.72;5096259;28;20151;-62
2022/12/19 19:08:36;;;;;;;22.48;13.93;;;;;;;22.82;51.15;101225.81;5099040;28;20044;-62
2022/12/19 19:11:03;;;;;;;24.40;14.07;;;;;;;22.83;50.99;101218.72;5100857;28;20043;-61
2022/12/19 19:13:30;;;;;;;21.70;13.27;;;;;;;22.84;51.08;101226.66;5102183;28;20067;-61
2022/12/19 19:15:57;;;;;;;21.05;13.18;;;;;;;22.84;51.12;101221.34;5099702;28;20047;-61
2022/12/19 19:18:25;;;;;;;21.30;12.95;;;;;;;22.84;51.08;101221.34;5100807;28;20054;-61
2022/12/19 19:20:53;;;;;;;22.95;14.25;;;;;;;22.84;51.12;101220.44;5097445;28;20047;-62
2022/12/19 19:23:20;;;;;;;20.30;13.10;;;;;;;22.84;50.92;101221.34;5100881;28;20071;-61
2022/12/19 19:25:49;;;;;;;21.45;13.13;;;;;;;22.84;51.01;101234.63;5098570;28;20068;-61
2022/12/19 19:28:16;;;;;;;25.75;13.73;;;;;;;22.83;50.86;101234.66;5097781;28;20071;-61
2022/12/19 19:30:43;;;;;;;24.60;13.73;;;;;;;22.81;51.02;101232.03;5094211;28;20514;-59
2022/12/19 19:33:11;;;;;;;21.63;13.48;;;;;;;22.81;50.90;101238.22;5089077;28;20050;-59
2022/12/19 19:35:38;;;;;;;23.65;13.82;;;;;;;22.81;50.90;101240.00;5089680;28;20098;-62
2022/12/19 19:38:07;;;;;;;33.28;13.82;;;;;;;22.81;51.18;101240.00;5098881;28;20506;-56
2022/12/19 19:40:33;;;;;;;26.83;14.00;;;;;;;22.80;51.08;101236.50;5090987;28;20144;-56
2022/12/19 19:43:00;;;;;;;26.90;13.48;;;;;;;22.81;51.16;101242.66;5093216;28;20079;-56
2022/12/19 19:45:27;;;;;;;24.08;12.77;;;;;;;22.83;51.05;101246.16;5099769;28;20131;-56
2022/12/19 19:47:54;;;;;;;22.35;13.32;;;;;;;22.82;51.04;101244.44;5077676;28;20052;-56
2022/12/19 19:50:20;;;;;;;22.77;12.95;;;;;;;22.83;51.15;101245.28;5094363;28;20143;-56
2022/12/19 19:52:47;;;;;;;21.02;12.30;;;;;;;22.83;51.19;101239.97;5099051;28;20070;-56
2022/12/19 19:55:15;;;;;;;21.73;12.80;;;;;;;22.83;51.05;101240.84;5100756;28;20127;-56
2022/12/19 19:57:42;;;;;;;28.50;12.63;;;;;;;22.83;51.19;101235.53;5095578;28;20068;-56
2022/12/19 20:00:09;;;;;;;19.95;12.85;;;;;;;22.84;51.20;101239.94;5097028;28;20510;-56
2022/12/19 20:02:36;;;;;;;19.73;12.40;;;;;;;22.83;51.23;101235.53;5096309;28;20603;-55
2022/12/19 20:05:03;;;;;;;21.33;12.70;;;;;;;22.83;51.40;101235.53;5081208;28;20482;-55
2022/12/19 20:07:29;;;;;;;21.83;12.23;;;;;;;22.83;51.54;101235.53;5097894;28;20046;-55
2022/12/19 20:09:56;;;;;;;20.50;12.15;;;;;;;22.84;51.27;101231.06;5095315;28;20086;-56
2022/12/19 20:12:24;;;;;;;25.35;12.43;;;;;;;22.83;51.36;101232.88;5083366;28;20116;-56
2022/12/19 20:14:51;;;;;;;21.90;12.55;;;;;;;22.85;51.33;101222.22;5095884;28;20131;-56
2022/12/19 20:17:18;;;;;;;22.30;12.55;;;;;;;22.84;51.34;101221.34;5083592;28;20134;-56
2022/12/19 20:19:45;;;;;;;23.23;12.10;;;;;;;22.83;51.23;101211.59;5104781;28;20131;-56
2022/12/19 20:22:12;;;;;;;21.25;11.60;;;;;;;22.83;51.60;101200.97;5104395;28;20036;-56
2022/12/19 20:24:38;;;;;;;25.25;12.07;;;;;;;22.83;51.25;101193.00;5088528;28;20048;-56
2022/12/19 20:27:05;;;;;;;22.45;12.07;;;;;;;22.83;51.31;101186.81;5108956;28;20134;-56
2022/12/19 20:29:33;;;;;;;22.80;11.40;;;;;;;22.82;51.59;101191.28;5095264;28;20046;-56
2022/12/19 20:32:00;;;;;;;19.40;11.73;;;;;;;22.81;51.39;101187.72;5104531;28;20050;-56
2022/12/19 20:34:27;;;;;;;19.30;11.95;;;;;;;22.81;51.37;101182.41;5098963;28;20054;-56
2022/12/19 20:36:53;;;;;;;21.40;11.65;;;;;;;22.80;51.68;101171.84;5104061;28;20409;-57
2022/12/19 20:39:21;;;;;;;18.05;11.18;;;;;;;22.80;51.52;101172.69;5093166;28;20054;-57
2022/12/19 20:41:49;;;;;;;25.10;12.38;;;;;;;22.81;51.61;101168.25;5094556;28;20055;-56
2022/12/19 20:44:16;;;;;;;21.70;12.82;;;;;;;22.81;51.47;101168.25;5093309;28;20052;-55
2022/12/19 20:46:44;;;;;;;19.95;11.57;;;;;;;22.79;51.50;101170.06;5093899;28;20131;-56
2022/12/19 20:49:11;;;;;;;20.40;12.40;;;;;;;22.78;51.41;101173.66;5094833;28;20071;-55
2022/12/19 20:51:38;;;;;;;25.42;12.23;;;;;;;22.77;51.49;101169.25;5093057;28;20043;-56
2022/12/19 20:54:06;;;;;;;21.60;11.88;;;;;;;22.77;51.36;101171.91;5092131;28;20184;-56
2022/12/19 20:56:32;;;;;;;19.92;11.93;;;;;;;22.76;51.49;101163.06;5094134;28;20423;-56
2022/12/19 20:58:59;;;;;;;21.25;12.02;;;;;;;22.76;51.50;101165.72;5094309;28;20084;-56
2022/12/19 21:01:26;;;;;;;20.58;12.27;;;;;;;22.75;51.15;101163.97;5094097;28;20036;-55
2022/12/19 21:03:54;;;;;;;17.83;11.20;;;;;;;22.77;51.40;101166.59;5093725;28;20588;-56
2022/12/19 21:06:21;;;;;;;20.88;11.43;;;;;;;22.76;51.42;101171.03;5094572;28;20054;-56
2022/12/19 21:08:47;;;;;;;22.55;11.57;;;;;;;22.76;51.49;101168.38;5094508;28;20048;-56
2022/12/19 21:11:14;;;;;;;22.08;11.52;;;;;;;22.75;51.44;101165.75;5094274;28;20047;-56
2022/12/19 21:13:41;;;;;;;22.27;11.45;;;;;;;22.75;51.43;101163.09;5084612;28;20048;-56
2022/12/19 21:16:09;;;;;;;20.67;11.45;;;;;;;22.75;51.38;101168.41;5114781;28;20454;-61
2022/12/19 21:18:36;;;;;;;23.27;10.50;;;;;;;22.78;51.31;101177.19;5114327;28;20512;-59
2022/12/19 21:21:04;;;;;;;19.58;11.38;;;;;;;22.79;51.32;101170.94;5102996;28;20123;-59
2022/12/19 21:23:31;;;;;;;19.40;10.70;;;;;;;22.80;51.32;101166.53;5099984;28;20050;-59
2022/12/19 21:25:59;;;;;;;22.83;11.02;;;;;;;22.80;51.23;101164.72;5095285;28;20569;-57
2022/12/19 21:28:26;;;;;;;18.75;10.40;;;;;;;22.81;51.37;101157.63;5092198;28;20040;-58